Time;durP1;ratioP1;P1;durP2;ratioP2;P2;SDS_P1;SDS_P2;PMS_P1;PMS_P2;Temp;Humidity;BMP_temperature;BMP_pressure;BME280_temperature;BME280_humidity;BME280_pressure;Samples;Min_cycle;Max_cycle;Signal;HPM_P1;HPM_P2
2022/09/11 00:00:56;;;;;;;764.00;682.40;;;18.00;99.90;;;;;;5047265;28;20213;-78
2022/09/11 00:03:23;;;;;;;785.05;702.97;;;17.90;99.90;;;;;;5046496;28;20582;-80
2022/09/11 00:05:51;;;;;;;780.38;698.47;;;17.90;99.90;;;;;;5056932;28;21918;-79
2022/09/11 00:08:20;;;;;;;757.70;676.30;;;17.90;99.90;;;;;;5052323;28;20210;-78
2022/09/11 00:10:48;;;;;;;773.92;692.20;;;17.90;99.90;;;;;;5043477;28;20757;-78
2022/09/11 00:13:20;;;;;;;772.28;690.33;;;17.90;99.90;;;;;;5041194;28;20207;-79
2022/09/11 00:15:48;;;;;;;772.28;690.42;;;17.90;99.90;;;;;;5051388;28;20600;-77
2022/09/11 00:18:17;;;;;;;773.80;691.90;;;17.90;99.90;;;;;;5044185;28;20204;-77
2022/09/11 00:20:49;;;;;;;783.88;701.63;;;17.90;99.90;;;;;;5053238;28;20199;-78
2022/09/11 00:23:16;;;;;;;763.03;681.45;;;17.90;99.90;;;;;;5048272;28;20642;-77
2022/09/11 00:25:45;;;;;;;775.60;693.42;;;17.90;99.90;;;;;;5049903;28;20614;-76
2022/09/11 00:28:15;;;;;;;758.33;676.67;;;17.90;99.90;;;;;;5049086;28;20287;-77
2022/09/11 00:30:43;;;;;;;755.95;674.17;;;17.90;99.90;;;;;;5046499;28;20191;-77
2022/09/11 00:33:11;;;;;;;781.42;699.28;;;17.80;99.90;;;;;;5050965;28;20199;-77
2022/09/11 00:35:38;;;;;;;772.63;690.78;;;17.80;99.90;;;;;;5052767;28;20219;-76
2022/09/11 00:38:05;;;;;;;764.67;682.88;;;17.80;99.90;;;;;;5045353;28;20199;-79
2022/09/11 00:40:31;;;;;;;768.72;686.72;;;17.80;99.90;;;;;;5052246;28;20257;-78
2022/09/11 00:42:59;;;;;;;779.33;697.28;;;17.80;99.90;;;;;;5054122;28;20214;-78
2022/09/11 00:45:28;;;;;;;765.90;684.10;;;17.80;99.90;;;;;;5048670;28;20286;-78
2022/09/11 00:47:59;;;;;;;753.15;671.95;;;17.80;99.90;;;;;;5052777;28;20199;-79
2022/09/11 00:50:28;;;;;;;763.42;681.53;;;17.80;99.90;;;;;;5051948;28;20218;-78
2022/09/11 00:53:00;;;;;;;771.83;689.85;;;17.80;99.90;;;;;;5053352;28;20651;-78
2022/09/11 00:55:31;;;;;;;760.10;678.47;;;17.80;99.90;;;;;;5053647;28;20195;-78
2022/09/11 00:58:01;;;;;;;783.90;701.80;;;17.80;99.90;;;;;;5050671;28;20203;-78
2022/09/11 01:00:30;;;;;;;765.22;683.42;;;17.80;99.90;;;;;;5052945;28;20574;-79
2022/09/11 01:02:57;;;;;;;767.08;685.17;;;17.70;99.90;;;;;;5048377;28;20606;-77
2022/09/11 01:05:27;;;;;;;763.58;681.83;;;17.70;99.90;;;;;;5054110;28;20199;-77
2022/09/11 01:07:55;;;;;;;754.50;673.00;;;17.70;99.90;;;;;;5050352;28;20217;-77
2022/09/11 01:10:33;;;;;;;751.78;670.28;;;17.70;99.90;;;;;;5053304;28;20207;-77
2022/09/11 01:13:09;;;;;;;766.00;684.30;;;17.70;99.90;;;;;;5052618;28;20673;-78
2022/09/11 01:15:42;;;;;;;767.88;686.00;;;17.70;99.90;;;;;;5053374;28;20203;-79
2022/09/11 01:18:14;;;;;;;769.55;687.65;;;17.70;99.90;;;;;;5049166;28;20183;-77
2022/09/11 01:20:55;;;;;;;770.20;688.35;;;17.70;99.90;;;;;;5052067;28;20260;-78
2022/09/11 01:23:54;;;;;;;755.50;673.92;;;17.70;99.90;;;;;;5047042;28;20195;-78
2022/09/11 01:26:46;;;;;;;765.65;683.72;;;17.70;99.90;;;;;;5052864;28;20188;-80
2022/09/11 01:29:19;;;;;;;746.33;664.78;;;17.70;99.90;;;;;;5046243;28;20205;-77
2022/09/11 01:31:54;;;;;;;761.92;680.13;;;17.70;99.90;;;;;;5052146;28;20199;-79
2022/09/11 01:34:25;;;;;;;755.90;674.05;;;17.60;99.90;;;;;;5052470;28;20194;-76
2022/09/11 01:36:57;;;;;;;759.97;678.03;;;17.60;99.90;;;;;;5049011;28;20219;-79
2022/09/11 01:39:28;;;;;;;778.55;696.25;;;17.60;99.90;;;;;;5048293;28;20214;-77
2022/09/11 01:42:00;;;;;;;763.20;681.25;;;17.60;99.90;;;;;;5053274;28;20191;-77
2022/09/11 01:44:34;;;;;;;778.17;695.88;;;17.60;99.90;;;;;;5051722;28;20191;-78
2022/09/11 01:47:04;;;;;;;770.28;688.28;;;17.60;99.90;;;;;;5051411;28;20191;-78
2022/09/11 01:49:35;;;;;;;769.92;687.67;;;17.60;99.90;;;;;;5051930;28;20562;-78
2022/09/11 01:52:06;;;;;;;748.35;666.88;;;17.60;99.90;;;;;;5051218;28;20203;-77
2022/09/11 01:54:36;;;;;;;765.00;683.03;;;17.60;99.90;;;;;;5052609;28;20554;-77
2022/09/11 01:57:08;;;;;;;766.88;685.00;;;17.60;99.90;;;;;;5037666;28;20223;-78
2022/09/11 01:59:41;;;;;;;764.28;682.45;;;17.60;99.90;;;;;;5047655;28;20257;-77
2022/09/11 02:02:11;;;;;;;770.15;688.08;;;17.60;99.90;;;;;;5049664;28;20191;-78
2022/09/11 02:04:41;;;;;;;759.10;677.63;;;17.60;99.90;;;;;;5052147;28;20689;-78
2022/09/11 02:07:12;;;;;;;762.58;681.10;;;17.60;99.90;;;;;;5049148;28;20198;-78
2022/09/11 02:09:45;;;;;;;760.38;678.80;;;17.60;99.90;;;;;;5051201;28;20199;-78
2022/09/11 02:12:17;;;;;;;763.75;681.75;;;17.60;99.90;;;;;;5052411;28;20573;-78
2022/09/11 02:14:48;;;;;;;755.72;674.05;;;17.60;99.90;;;;;;5050606;28;20551;-77
2022/09/11 02:17:23;;;;;;;729.17;644.17;;;17.60;99.90;;;;;;5049794;28;20257;-77
2022/09/11 02:19:51;;;;;;;743.50;662.20;;;17.50;99.90;;;;;;5051814;28;20665;-77
2022/09/11 02:22:17;;;;;;;763.83;681.97;;;17.50;99.90;;;;;;5047095;28;20202;-78
2022/09/11 02:24:44;;;;;;;764.85;682.78;;;17.50;99.90;;;;;;5051272;28;20206;-78
2022/09/11 02:27:15;;;;;;;771.20;688.95;;;17.50;99.90;;;;;;5051232;28;20210;-79
2022/09/11 02:29:43;;;;;;;759.30;677.42;;;17.50;99.90;;;;;;5049374;28;20645;-77
2022/09/11 02:32:11;;;;;;;752.17;670.42;;;17.50;99.90;;;;;;5043818;28;20563;-79
2022/09/11 02:34:42;;;;;;;767.90;685.67;;;17.50;99.90;;;;;;5050733;28;20650;-76
2022/09/11 02:37:21;;;;;;;755.97;674.30;;;17.50;99.90;;;;;;5040274;28;20230;-77
2022/09/11 02:40:14;;;;;;;755.38;673.67;;;17.50;99.90;;;;;;5049538;28;20238;-77
2022/09/11 02:42:54;;;;;;;740.92;658.80;;;17.50;99.90;;;;;;5047589;28;20206;-77
2022/09/11 02:45:34;;;;;;;753.38;671.53;;;17.40;99.90;;;;;;5047801;28;20230;-79
2022/09/11 02:48:11;;;;;;;750.85;669.25;;;17.40;99.90;;;;;;5049064;28;20202;-78
2022/09/11 02:50:44;;;;;;;748.65;667.15;;;17.40;99.90;;;;;;5043414;28;20226;-76
2022/09/11 02:53:19;;;;;;;750.50;668.80;;;17.50;99.90;;;;;;5046297;28;20191;-78
2022/09/11 02:55:56;;;;;;;753.15;671.55;;;17.40;99.90;;;;;;5038637;28;20209;-80
2022/09/11 02:58:27;;;;;;;744.45;662.95;;;17.40;99.90;;;;;;5049727;28;20225;-78
2022/09/11 03:00:57;;;;;;;765.30;683.10;;;17.40;99.90;;;;;;5045850;28;20678;-80
2022/09/11 03:03:25;;;;;;;742.28;658.83;;;17.40;99.90;;;;;;5050051;28;20230;-77
2022/09/11 03:05:52;;;;;;;761.25;679.35;;;17.40;99.90;;;;;;5046400;28;20646;-77
2022/09/11 03:08:19;;;;;;;752.88;671.00;;;17.40;99.90;;;;;;5043574;28;20669;-77
2022/09/11 03:10:48;;;;;;;761.70;679.65;;;17.40;99.90;;;;;;5051027;28;20191;-79
2022/09/11 03:13:15;;;;;;;761.58;679.75;;;17.40;99.90;;;;;;5050566;28;20261;-77
2022/09/11 03:15:43;;;;;;;750.95;669.08;;;17.40;99.90;;;;;;5044209;28;20221;-77
2022/09/11 03:18:13;;;;;;;750.58;668.90;;;17.40;99.90;;;;;;5049723;28;20677;-77
2022/09/11 03:20:44;;;;;;;754.67;672.97;;;17.40;99.90;;;;;;5043267;28;20219;-77
2022/09/11 03:23:12;;;;;;;765.63;683.33;;;17.40;99.90;;;;;;5043632;28;20191;-77
2022/09/11 03:25:40;;;;;;;754.80;672.90;;;17.40;99.90;;;;;;5049284;28;20211;-77
2022/09/11 03:28:07;;;;;;;752.90;671.22;;;17.40;99.90;;;;;;5050975;28;20187;-78
2022/09/11 03:30:34;;;;;;;755.58;673.80;;;17.40;99.90;;;;;;5050738;28;20206;-76
2022/09/11 03:33:01;;;;;;;749.70;667.92;;;17.40;99.90;;;;;;5039766;28;20562;-78
2022/09/11 03:35:28;;;;;;;758.33;676.53;;;17.40;99.90;;;;;;5046763;28;20203;-77
2022/09/11 03:37:56;;;;;;;747.13;665.40;;;17.40;99.90;;;;;;5040334;28;20218;-79
2022/09/11 03:40:23;;;;;;;768.17;686.03;;;17.40;99.90;;;;;;5048399;28;20205;-76
2022/09/11 03:42:50;;;;;;;751.75;669.97;;;17.40;99.90;;;;;;5050596;28;20195;-79
2022/09/11 03:45:17;;;;;;;741.83;660.03;;;17.40;99.90;;;;;;5049816;28;20207;-77
2022/09/11 03:47:43;;;;;;;748.90;667.35;;;17.40;99.90;;;;;;5046254;28;20202;-77
2022/09/11 03:50:11;;;;;;;752.60;670.92;;;17.40;99.90;;;;;;5050961;28;20192;-77
2022/09/11 03:52:38;;;;;;;762.90;681.05;;;17.40;99.90;;;;;;5047748;28;20199;-78
2022/09/11 03:55:07;;;;;;;737.95;656.58;;;17.40;99.90;;;;;;5049219;28;20225;-77
2022/09/11 03:57:34;;;;;;;730.15;645.53;;;17.40;99.90;;;;;;5049756;28;20701;-78
2022/09/11 04:00:02;;;;;;;751.53;669.78;;;17.40;99.90;;;;;;5044334;28;20214;-79
2022/09/11 04:02:28;;;;;;;758.42;676.45;;;17.40;99.90;;;;;;5046938;28;20219;-77
2022/09/11 04:04:55;;;;;;;740.50;658.15;;;17.40;99.90;;;;;;5050298;28;20222;-77
2022/09/11 04:07:22;;;;;;;737.55;655.00;;;17.40;99.90;;;;;;5043320;28;20665;-77
2022/09/11 04:09:48;;;;;;;751.40;669.63;;;17.40;99.90;;;;;;5049303;28;20191;-77
2022/09/11 04:12:17;;;;;;;746.92;665.63;;;17.40;99.90;;;;;;5050748;28;20274;-77
2022/09/11 04:14:44;;;;;;;744.20;662.20;;;17.40;99.90;;;;;;5051732;28;20199;-78
2022/09/11 04:17:11;;;;;;;751.30;669.80;;;17.40;99.90;;;;;;5051808;28;20242;-79
2022/09/11 04:19:38;;;;;;;739.15;657.75;;;17.40;99.90;;;;;;5053296;28;20561;-78
2022/09/11 04:22:04;;;;;;;753.28;671.60;;;17.40;99.90;;;;;;5046829;28;20198;-79
2022/09/11 04:24:31;;;;;;;754.17;672.47;;;17.40;99.90;;;;;;5051769;28;20229;-80
2022/09/11 04:26:59;;;;;;;757.78;675.92;;;17.40;99.90;;;;;;5053661;28;20203;-80
2022/09/11 04:29:27;;;;;;;745.75;664.40;;;17.40;99.90;;;;;;5052708;28;20199;-80
2022/09/11 04:31:54;;;;;;;739.28;658.05;;;17.30;99.90;;;;;;5049763;28;20200;-79
2022/09/11 04:34:22;;;;;;;746.65;665.00;;;17.30;99.90;;;;;;5049696;28;20780;-79
2022/09/11 04:36:48;;;;;;;754.70;673.20;;;17.40;99.90;;;;;;5044702;28;20199;-79
2022/09/11 04:39:16;;;;;;;750.63;668.80;;;17.40;99.90;;;;;;5051784;28;20214;-79
2022/09/11 04:41:44;;;;;;;742.72;661.22;;;17.30;99.90;;;;;;5054282;28;20199;-79
2022/09/11 04:44:10;;;;;;;741.50;659.38;;;17.40;99.90;;;;;;5052575;28;20199;-79
2022/09/11 04:46:39;;;;;;;743.63;662.35;;;17.30;99.90;;;;;;5051112;28;20202;-79
2022/09/11 04:49:07;;;;;;;747.22;665.92;;;17.40;99.90;;;;;;5051901;28;20203;-82
2022/09/11 04:51:35;;;;;;;739.30;657.80;;;17.30;99.90;;;;;;5051297;28;20285;-80
2022/09/11 04:54:03;;;;;;;743.60;661.08;;;17.40;99.90;;;;;;5053175;28;20195;-81
2022/09/11 04:56:31;;;;;;;735.10;650.30;;;17.30;99.90;;;;;;5053820;28;20676;-80
2022/09/11 04:59:00;;;;;;;750.42;668.42;;;17.30;99.90;;;;;;5050871;28;20211;-80
2022/09/11 05:01:29;;;;;;;749.08;667.53;;;17.30;99.90;;;;;;5050969;28;20209;-81
2022/09/11 05:03:59;;;;;;;748.72;667.22;;;17.30;99.90;;;;;;5053351;28;20697;-81
2022/09/11 05:06:26;;;;;;;753.15;671.35;;;17.30;99.90;;;;;;5049081;28;20208;-80
2022/09/11 05:08:52;;;;;;;745.58;664.03;;;17.30;99.90;;;;;;5049720;28;20196;-81
2022/09/11 05:11:20;;;;;;;757.97;676.13;;;17.30;99.90;;;;;;5042031;28;20215;-80
2022/09/11 05:13:47;;;;;;;744.33;662.92;;;17.30;99.90;;;;;;5048367;28;20664;-81
2022/09/11 05:16:16;;;;;;;752.47;670.80;;;17.30;99.90;;;;;;5049330;28;20195;-81
2022/09/11 05:18:49;;;;;;;735.15;654.10;;;17.30;99.90;;;;;;5051574;28;20219;-81
2022/09/11 05:21:17;;;;;;;739.17;657.17;;;17.30;99.90;;;;;;5049236;28;20245;-80
2022/09/11 05:23:49;;;;;;;739.28;656.58;;;17.30;99.90;;;;;;5049029;28;20302;-80
2022/09/11 05:26:17;;;;;;;750.45;668.72;;;17.30;99.90;;;;;;5051488;28;20205;-82
2022/09/11 05:28:44;;;;;;;760.80;679.00;;;17.30;99.90;;;;;;5049311;28;20312;-80
2022/09/11 05:31:12;;;;;;;750.05;668.42;;;17.30;99.90;;;;;;5050256;28;20206;-82
2022/09/11 05:33:39;;;;;;;752.00;670.42;;;17.30;99.90;;;;;;5051538;28;20195;-81
2022/09/11 05:36:07;;;;;;;741.72;660.53;;;17.30;99.90;;;;;;5046966;28;20242;-81
2022/09/11 05:38:36;;;;;;;744.83;663.47;;;17.30;99.90;;;;;;5042736;28;20249;-81
2022/09/11 05:41:06;;;;;;;748.47;667.10;;;17.30;99.90;;;;;;5050995;28;20274;-81
2022/09/11 05:43:33;;;;;;;741.85;659.92;;;17.30;99.90;;;;;;5052994;28;20195;-81
2022/09/11 05:46:00;;;;;;;748.63;667.28;;;17.30;99.90;;;;;;5043553;28;20543;-81
2022/09/11 05:48:28;;;;;;;742.25;660.80;;;17.30;99.90;;;;;;5050513;28;20196;-81
2022/09/11 05:50:56;;;;;;;733.92;651.38;;;17.30;99.90;;;;;;5050129;28;20203;-83
2022/09/11 05:53:22;;;;;;;734.42;652.30;;;17.30;99.90;;;;;;5040671;28;20194;-82
2022/09/11 05:55:51;;;;;;;737.50;655.30;;;17.30;99.90;;;;;;5052341;28;20201;-81
2022/09/11 05:58:19;;;;;;;728.13;641.50;;;17.30;99.90;;;;;;5050342;28;20632;-81
2022/09/11 06:00:46;;;;;;;730.20;645.22;;;17.30;99.90;;;;;;5048813;28;20631;-83
2022/09/11 06:03:13;;;;;;;727.28;642.95;;;17.30;99.90;;;;;;5048252;28;20289;-82
2022/09/11 06:05:40;;;;;;;736.58;654.38;;;17.30;99.90;;;;;;5044809;28;20207;-80
2022/09/11 06:08:07;;;;;;;725.40;626.60;;;17.30;99.90;;;;;;5051453;28;20202;-82
2022/09/11 06:10:33;;;;;;;736.50;654.08;;;17.30;99.90;;;;;;5052837;28;20608;-82
2022/09/11 06:13:02;;;;;;;739.22;658.00;;;17.30;99.90;;;;;;5050669;28;20199;-82
2022/09/11 06:15:28;;;;;;;731.03;647.20;;;17.30;99.90;;;;;;5051214;28;20195;-81
2022/09/11 06:17:55;;;;;;;750.47;669.00;;;17.30;99.90;;;;;;5042482;28;20218;-79
2022/09/11 06:20:22;;;;;;;747.08;665.75;;;17.30;99.90;;;;;;5054046;28;20227;-82
2022/09/11 06:22:49;;;;;;;740.45;658.72;;;17.30;99.90;;;;;;5044930;28;20195;-80
2022/09/11 06:25:18;;;;;;;738.95;657.15;;;17.30;99.90;;;;;;5041565;28;20207;-80
2022/09/11 06:27:45;;;;;;;744.67;663.25;;;17.30;99.90;;;;;;5049260;28;20191;-81
2022/09/11 06:30:14;;;;;;;750.20;668.80;;;17.30;99.90;;;;;;5045842;28;20195;-81
2022/09/11 06:32:41;;;;;;;737.75;655.47;;;17.30;99.90;;;;;;5049944;28;20287;-79
2022/09/11 06:35:09;;;;;;;733.97;651.22;;;17.30;99.90;;;;;;5048477;28;20195;-81
2022/09/11 06:37:35;;;;;;;746.42;665.15;;;17.30;99.90;;;;;;5048609;28;20215;-81
2022/09/11 06:40:03;;;;;;;733.20;651.15;;;17.30;99.90;;;;;;5049289;28;20202;-81
2022/09/11 06:42:29;;;;;;;735.22;652.90;;;17.30;99.90;;;;;;5050856;28;20570;-80
2022/09/11 06:44:57;;;;;;;742.10;660.92;;;17.30;99.90;;;;;;5049262;28;20207;-81
2022/09/11 06:47:25;;;;;;;751.42;670.03;;;17.30;99.90;;;;;;5048702;28;20702;-81
2022/09/11 06:49:52;;;;;;;735.13;654.28;;;17.30;99.90;;;;;;5046677;28;20619;-81
2022/09/11 06:52:19;;;;;;;749.78;668.60;;;17.30;99.90;;;;;;5047023;28;20585;-81
2022/09/11 06:54:45;;;;;;;727.55;644.35;;;17.30;99.90;;;;;;5045669;28;20195;-82
2022/09/11 06:57:12;;;;;;;733.03;650.50;;;17.30;99.90;;;;;;5049382;28;20192;-81
2022/09/11 06:59:39;;;;;;;739.28;658.15;;;17.30;99.90;;;;;;5049189;28;20222;-81
2022/09/11 07:02:06;;;;;;;736.80;655.00;;;17.30;99.90;;;;;;5047181;28;20563;-81
2022/09/11 07:04:34;;;;;;;743.65;662.50;;;17.30;99.90;;;;;;5047150;28;20219;-80
2022/09/11 07:07:00;;;;;;;726.90;642.53;;;17.30;99.90;;;;;;5042563;28;20203;-81
2022/09/11 07:09:27;;;;;;;731.75;646.88;;;17.30;99.90;;;;;;5049049;28;20196;-81
2022/09/11 07:11:54;;;;;;;746.92;665.50;;;17.30;99.90;;;;;;5047176;28;20662;-81
2022/09/11 07:14:22;;;;;;;755.75;674.20;;;17.30;99.90;;;;;;5048789;28;20199;-83
2022/09/11 07:16:49;;;;;;;745.53;664.28;;;17.30;99.90;;;;;;5048742;28;20214;-81
2022/09/11 07:19:17;;;;;;;746.17;665.03;;;17.30;99.90;;;;;;5046770;28;20207;-81
2022/09/11 07:21:46;;;;;;;750.40;669.20;;;17.30;99.90;;;;;;5049018;28;20253;-81
2022/09/11 07:24:12;;;;;;;735.80;653.80;;;17.30;99.90;;;;;;5048800;28;20194;-81
2022/09/11 07:26:39;;;;;;;737.70;655.80;;;17.30;99.90;;;;;;5050104;28;20199;-81
2022/09/11 07:29:06;;;;;;;736.50;654.08;;;17.30;99.90;;;;;;5049867;28;20270;-81
2022/09/11 07:31:33;;;;;;;733.67;651.67;;;17.30;99.90;;;;;;5047942;28;20199;-80
2022/09/11 07:34:01;;;;;;;742.33;661.20;;;17.30;99.90;;;;;;5046891;28;20219;-81
2022/09/11 07:36:29;;;;;;;748.67;667.40;;;17.30;99.90;;;;;;5047086;28;20203;-80
2022/09/11 07:38:58;;;;;;;742.10;661.03;;;17.30;99.90;;;;;;5048477;28;20865;-81
2022/09/11 07:41:27;;;;;;;740.78;659.70;;;17.30;99.90;;;;;;5049847;28;20684;-82
2022/09/11 07:43:55;;;;;;;750.63;669.30;;;17.30;99.90;;;;;;5046086;28;20201;-81
2022/09/11 07:46:23;;;;;;;730.08;648.08;;;17.30;99.90;;;;;;5045959;28;20201;-81
2022/09/11 07:48:50;;;;;;;748.80;667.55;;;17.30;99.90;;;;;;5043329;28;20222;-80
2022/09/11 07:51:18;;;;;;;737.90;656.30;;;17.30;99.90;;;;;;5051476;28;20203;-83
2022/09/11 07:53:47;;;;;;;737.67;655.53;;;17.30;99.90;;;;;;5048584;28;20290;-82
2022/09/11 07:56:17;;;;;;;735.92;654.05;;;17.30;99.90;;;;;;5049384;28;20192;-82
2022/09/11 07:58:45;;;;;;;739.35;658.05;;;17.30;99.90;;;;;;5052500;28;20258;-82
2022/09/11 08:01:13;;;;;;;737.65;656.70;;;17.40;99.90;;;;;;5042803;28;20204;-82
2022/09/11 08:03:41;;;;;;;747.85;666.45;;;17.40;99.90;;;;;;5043190;28;20219;-82
2022/09/11 08:06:12;;;;;;;747.38;665.90;;;17.40;99.90;;;;;;5052273;28;20204;-82
2022/09/11 08:08:39;;;;;;;736.38;654.63;;;17.40;99.90;;;;;;5049809;28;20713;-82
2022/09/11 08:11:08;;;;;;;750.60;669.20;;;17.40;99.90;;;;;;5049313;28;20198;-81
2022/09/11 08:13:37;;;;;;;726.28;636.00;;;17.40;99.90;;;;;;5049103;28;20211;-80
2022/09/11 08:16:05;;;;;;;744.90;663.85;;;17.40;99.90;;;;;;5049009;28;20207;-81
2022/09/11 08:18:33;;;;;;;755.80;674.22;;;17.40;99.90;;;;;;5052791;28;20215;-82
2022/09/11 08:21:02;;;;;;;730.08;640.08;;;17.40;99.90;;;;;;5051580;28;20199;-81
2022/09/11 08:23:29;;;;;;;750.90;669.55;;;17.40;99.90;;;;;;5049466;28;20654;-81
2022/09/11 08:25:56;;;;;;;735.78;652.80;;;17.40;99.90;;;;;;5044484;28;20207;-81
2022/09/11 08:28:23;;;;;;;740.55;659.13;;;17.40;99.90;;;;;;5051670;28;20195;-80
2022/09/11 08:30:57;;;;;;;743.97;662.60;;;17.40;99.90;;;;;;5048961;28;21902;-82
2022/09/11 08:33:24;;;;;;;732.13;648.33;;;17.40;99.90;;;;;;5050981;28;20217;-81
2022/09/11 08:35:51;;;;;;;738.50;656.30;;;17.40;99.90;;;;;;5042506;28;20204;-82
2022/09/11 08:38:17;;;;;;;737.67;655.60;;;17.40;99.90;;;;;;5039745;28;20735;-81
2022/09/11 08:40:47;;;;;;;753.67;672.20;;;17.40;99.90;;;;;;5045023;28;20286;-82
2022/09/11 08:43:21;;;;;;;751.53;669.97;;;17.40;99.90;;;;;;5043551;28;20226;-82
2022/09/11 08:45:50;;;;;;;752.55;671.20;;;17.40;99.90;;;;;;5042842;28;20282;-81
2022/09/11 08:48:21;;;;;;;743.17;661.72;;;17.50;99.90;;;;;;5046947;28;20323;-81
2022/09/11 08:50:48;;;;;;;735.10;652.22;;;17.50;99.90;;;;;;5055253;28;20191;-82
2022/09/11 08:53:18;;;;;;;746.13;664.88;;;17.50;99.90;;;;;;5043333;28;20214;-82
2022/09/11 08:55:48;;;;;;;739.10;657.95;;;17.50;99.90;;;;;;5049416;28;20204;-81
2022/09/11 08:58:24;;;;;;;745.95;664.65;;;17.50;99.90;;;;;;5052205;28;20222;-81
2022/09/11 09:00:57;;;;;;;748.03;666.70;;;17.50;99.90;;;;;;5047981;28;20203;-82
2022/09/11 09:03:48;;;;;;;752.00;670.65;;;17.50;99.90;;;;;;5040375;28;20225;-81
2022/09/11 09:06:34;;;;;;;738.00;657.10;;;17.50;99.90;;;;;;5050649;28;20199;-81
2022/09/11 09:09:08;;;;;;;748.60;667.10;;;17.50;99.90;;;;;;5050831;28;20749;-82
2022/09/11 09:11:40;;;;;;;739.67;658.47;;;17.50;99.90;;;;;;5051974;28;20669;-81
2022/09/11 09:14:21;;;;;;;749.80;668.45;;;17.50;99.90;;;;;;5048941;28;20199;-81
2022/09/11 09:16:53;;;;;;;738.60;657.80;;;17.50;99.90;;;;;;5046822;28;20203;-81
2022/09/11 09:19:26;;;;;;;728.53;645.08;;;17.60;99.90;;;;;;5048513;28;20218;-82
2022/09/11 09:22:03;;;;;;;754.97;673.38;;;17.60;99.90;;;;;;5046427;28;20206;-81
2022/09/11 09:24:36;;;;;;;758.13;676.55;;;17.60;99.90;;;;;;5052703;28;20673;-80
2022/09/11 09:27:04;;;;;;;752.85;671.45;;;17.60;99.90;;;;;;5049068;28;20207;-81
2022/09/11 09:29:38;;;;;;;762.35;680.72;;;17.60;99.90;;;;;;5048938;28;20199;-83
2022/09/11 09:32:07;;;;;;;746.45;665.05;;;17.60;99.90;;;;;;5045211;28;20217;-80
2022/09/11 09:34:38;;;;;;;763.55;681.75;;;17.60;99.90;;;;;;5052424;28;20649;-80
2022/09/11 09:37:06;;;;;;;760.58;678.90;;;17.60;99.90;;;;;;5044175;28;20191;-82
2022/09/11 09:39:35;;;;;;;754.10;672.55;;;17.60;99.90;;;;;;5046302;28;20231;-84
2022/09/11 09:42:19;;;;;;;756.25;674.55;;;17.60;99.90;;;;;;5047219;28;20283;-84
2022/09/11 09:45:09;;;;;;;742.08;661.03;;;17.60;99.90;;;;;;5050144;28;20187;-83
2022/09/11 09:47:38;;;;;;;746.60;665.10;;;17.60;99.90;;;;;;5048390;28;20199;-82
2022/09/11 09:50:17;;;;;;;742.70;661.38;;;17.60;99.90;;;;;;5042418;28;20203;-84
2022/09/11 09:52:43;;;;;;;750.45;669.15;;;17.60;99.90;;;;;;5043598;28;20226;-83
2022/09/11 09:55:16;;;;;;;763.53;681.53;;;17.60;99.90;;;;;;5049198;28;20199;-84
2022/09/11 09:57:43;;;;;;;762.05;680.40;;;17.60;99.90;;;;;;5052259;28;20562;-81
2022/09/11 10:00:16;;;;;;;753.50;671.90;;;17.70;99.90;;;;;;5049209;28;20306;-84
2022/09/11 10:02:48;;;;;;;763.33;681.28;;;17.70;99.90;;;;;;5043838;28;20222;-82
2022/09/11 10:05:25;;;;;;;759.55;678.00;;;17.60;99.90;;;;;;5051233;28;20199;-82
2022/09/11 10:07:54;;;;;;;749.40;668.00;;;17.70;99.90;;;;;;5046829;28;20543;-83
2022/09/11 10:10:24;;;;;;;763.63;681.95;;;17.70;99.90;;;;;;5048164;28;20202;-84
2022/09/11 10:12:51;;;;;;;770.58;688.63;;;17.70;99.90;;;;;;5045298;28;20227;-85
2022/09/11 10:15:21;;;;;;;761.95;680.42;;;17.70;99.90;;;;;;5050759;28;20195;-85
2022/09/11 10:17:48;;;;;;;778.65;696.58;;;17.70;99.90;;;;;;5050753;28;20199;-85
2022/09/11 10:20:26;;;;;;;747.78;666.40;;;17.70;99.90;;;;;;5045652;28;20223;-84
2022/09/11 10:22:54;;;;;;;750.50;669.03;;;17.70;99.90;;;;;;5045707;28;20207;-85
2022/09/11 10:25:25;;;;;;;767.42;685.58;;;17.70;99.90;;;;;;5040023;28;20310;-84
2022/09/11 10:28:02;;;;;;;770.33;688.53;;;17.70;99.90;;;;;;5044814;28;20195;-86
2022/09/11 10:30:32;;;;;;;771.65;689.58;;;17.70;99.90;;;;;;5044885;28;20211;-84
2022/09/11 10:33:02;;;;;;;758.95;677.25;;;17.70;99.90;;;;;;5043254;28;20187;-84
2022/09/11 10:35:32;;;;;;;770.08;688.28;;;17.70;99.90;;;;;;5044779;28;20203;-84
2022/09/11 10:38:04;;;;;;;773.92;691.78;;;17.70;99.90;;;;;;5045686;28;20210;-84
2022/09/11 10:40:31;;;;;;;775.70;693.45;;;17.70;99.90;;;;;;5043858;28;20258;-85
2022/09/11 10:42:58;;;;;;;761.55;679.95;;;17.70;99.90;;;;;;5042388;28;20685;-85
2022/09/11 10:45:27;;;;;;;776.78;694.67;;;17.70;99.90;;;;;;5047841;28;20202;-84
2022/09/11 10:47:56;;;;;;;777.85;695.65;;;17.70;99.90;;;;;;5044318;28;20207;-85
2022/09/11 10:50:29;;;;;;;779.92;697.67;;;17.80;99.90;;;;;;5048476;28;20221;-84
2022/09/11 10:53:09;;;;;;;765.28;683.50;;;17.80;99.90;;;;;;5046506;28;20647;-84
2022/09/11 10:55:41;;;;;;;750.13;668.70;;;17.80;99.90;;;;;;5043346;28;20834;-84
2022/09/11 10:58:13;;;;;;;741.47;660.03;;;17.80;99.90;;;;;;5045675;28;20187;-82
2022/09/11 11:00:40;;;;;;;767.70;685.97;;;17.80;99.90;;;;;;5043908;28;20944;-82
2022/09/11 11:03:15;;;;;;;765.45;683.85;;;17.80;99.90;;;;;;5043643;28;20219;-83
2022/09/11 11:05:51;;;;;;;767.42;685.65;;;17.80;99.90;;;;;;5051407;28;20202;-83
2022/09/11 11:08:49;;;;;;;762.95;681.15;;;17.80;99.90;;;;;;5045074;28;20198;-83
2022/09/11 11:11:32;;;;;;;765.55;683.80;;;17.80;99.90;;;;;;5046710;28;20214;-83
2022/09/11 11:14:24;;;;;;;763.38;681.40;;;17.80;99.90;;;;;;5045409;28;20201;-83
2022/09/11 11:16:59;;;;;;;740.95;659.67;;;17.80;99.90;;;;;;5047698;28;20207;-84
2022/09/11 11:19:41;;;;;;;764.47;682.88;;;17.80;99.90;;;;;;5038697;28;20214;-84
2022/09/11 11:22:17;;;;;;;769.40;687.47;;;17.90;99.90;;;;;;5041615;28;20202;-83
2022/09/11 11:24:59;;;;;;;763.92;682.22;;;17.90;99.90;;;;;;5043290;28;20198;-83
2022/09/11 11:27:50;;;;;;;789.88;709.95;;;18.00;99.90;;;;;;5044840;28;20194;-83
2022/09/11 11:30:19;;;;;;;774.83;692.83;;;18.00;99.90;;;;;;5045289;28;20198;-81
2022/09/11 11:33:11;;;;;;;774.95;692.75;;;18.10;99.90;;;;;;5046915;28;20202;-85
2022/09/11 11:35:46;;;;;;;787.58;704.88;;;18.10;99.90;;;;;;5045513;28;20209;-85
2022/09/11 11:38:20;;;;;;;796.13;713.47;;;18.10;99.90;;;;;;5044122;28;20202;-84
2022/09/11 11:40:52;;;;;;;804.45;721.50;;;18.20;99.90;;;;;;5045879;28;20222;-83
2022/09/11 11:43:23;;;;;;;778.90;696.80;;;18.20;99.90;;;;;;5048470;28;20287;-81
2022/09/11 11:45:55;;;;;;;789.35;706.85;;;18.20;99.90;;;;;;5042728;28;20195;-84
2022/09/11 11:48:29;;;;;;;807.13;724.33;;;18.20;99.90;;;;;;5042973;28;20273;-84
2022/09/11 11:51:03;;;;;;;793.08;710.50;;;18.20;99.90;;;;;;5042426;28;20191;-83
2022/09/11 11:53:37;;;;;;;798.25;715.65;;;18.20;99.90;;;;;;5042465;28;20203;-82
2022/09/11 11:56:13;;;;;;;791.17;708.65;;;18.20;99.90;;;;;;5045554;28;20261;-83
2022/09/11 11:58:50;;;;;;;768.80;686.92;;;18.20;99.90;;;;;;5050382;28;20229;-82
2022/09/11 12:01:22;;;;;;;803.25;720.63;;;18.30;99.90;;;;;;5045997;28;20226;-82
2022/09/11 12:03:56;;;;;;;801.15;718.35;;;18.30;99.90;;;;;;5045587;28;20230;-82
2022/09/11 12:06:27;;;;;;;785.72;703.55;;;18.30;99.90;;;;;;5043674;28;20201;-82
2022/09/11 12:08:55;;;;;;;802.90;720.10;;;18.30;99.90;;;;;;5042246;28;20282;-82
2022/09/11 12:11:29;;;;;;;777.60;695.40;;;18.30;99.90;;;;;;5043253;28;20197;-81
2022/09/11 12:13:58;;;;;;;808.88;725.97;;;18.30;99.90;;;;;;5047586;28;20203;-82
2022/09/11 12:16:30;;;;;;;799.75;717.15;;;18.30;99.90;;;;;;5047777;28;20195;-82
2022/09/11 12:19:13;;;;;;;801.90;719.25;;;18.40;99.90;;;;;;5042188;28;20223;-82
2022/09/11 12:22:21;;;;;;;795.67;713.10;;;18.40;99.90;;;;;;5041903;28;20211;-83
2022/09/11 12:24:57;;;;;;;790.67;708.38;;;18.40;99.90;;;;;;5036923;28;20678;-83